createdAt,value
2023-06-29T00:00:28.127Z,5.63
2023-06-29T00:05:30.039Z,5.70
2023-06-29T00:10:31.959Z,5.57
2023-06-29T00:15:33.786Z,5.45
2023-06-29T00:20:36.914Z,5.53
2023-06-29T00:25:40.388Z,5.00
2023-06-29T00:30:42.432Z,5.55
2023-06-29T00:35:44.659Z,5.82
2023-06-29T00:40:48.356Z,4.85
2023-06-29T00:45:50.311Z,6.53
2023-06-29T00:50:52.285Z,5.22
2023-06-29T00:55:54.714Z,5.95
2023-06-29T01:00:57.403Z,6.60
2023-06-29T01:06:05.718Z,4.80
2023-06-29T01:11:08.712Z,5.30
2023-06-29T01:16:13.091Z,5.13
2023-06-29T01:21:17.829Z,5.18
2023-06-29T01:26:19.865Z,5.82
2023-06-29T01:31:21.797Z,4.53
2023-06-29T01:36:33.117Z,5.38
2023-06-29T01:41:41.295Z,5.60
2023-06-29T01:46:44.959Z,4.68
2023-06-29T01:51:46.970Z,4.38
2023-06-29T01:56:48.772Z,5.47
2023-06-29T02:01:50.847Z,4.93
2023-06-29T02:06:52.797Z,5.50
2023-06-29T02:11:54.731Z,5.60
2023-06-29T02:16:57.017Z,4.80
2023-06-29T02:21:58.948Z,6.40
2023-06-29T02:27:00.790Z,5.22
2023-06-29T02:32:02.722Z,5.32
2023-06-29T02:37:04.757Z,4.50
2023-06-29T02:42:06.751Z,4.68
2023-06-29T02:47:08.738Z,5.22
2023-06-29T02:52:10.805Z,5.13
2023-06-29T02:57:12.812Z,4.90
2023-06-29T03:02:14.743Z,5.10
2023-06-29T03:07:16.801Z,5.72
2023-06-29T03:12:21.984Z,7.68
2023-06-29T03:17:25.980Z,7.18
2023-06-29T03:22:28.464Z,6.65
2023-06-29T03:27:30.340Z,6.95
2023-06-29T03:32:32.242Z,5.88
2023-06-29T03:37:34.134Z,7.18
2023-06-29T03:42:35.965Z,6.57
2023-06-29T03:47:37.987Z,6.03
2023-06-29T03:52:39.916Z,6.05
2023-06-29T03:57:41.874Z,6.15
2023-06-29T04:02:43.881Z,6.32
2023-06-29T04:07:45.752Z,7.40
2023-06-29T04:12:47.660Z,6.78
2023-06-29T04:17:49.697Z,6.85
2023-06-29T04:22:51.711Z,8.70
2023-06-29T04:27:54.002Z,8.85
2023-06-29T04:32:57.688Z,6.75
2023-06-29T04:37:59.731Z,6.07
2023-06-29T04:43:01.798Z,10.40
2023-06-29T04:48:03.669Z,5.47
2023-06-29T04:53:13.765Z,6.07
2023-06-29T04:58:15.678Z,5.90
2023-06-29T05:03:17.827Z,6.00
2023-06-29T05:08:20.269Z,5.72
2023-06-29T05:13:22.156Z,5.57
2023-06-29T05:18:24.195Z,5.95
2023-06-29T05:23:26.050Z,5.95
2023-06-29T05:28:28.238Z,5.97
2023-06-29T05:33:30.297Z,5.68
2023-06-29T05:38:35.391Z,5.38
2023-06-29T05:43:37.471Z,6.20
2023-06-29T05:48:39.360Z,6.10
2023-06-29T05:53:41.293Z,5.57
2023-06-29T05:58:43.144Z,5.70
2023-06-29T06:03:45.213Z,4.95
2023-06-29T06:08:47.295Z,7.43
2023-06-29T06:13:49.289Z,8.25
2023-06-29T06:18:51.414Z,7.82
2023-06-29T06:23:54.634Z,7.18
2023-06-29T06:28:56.734Z,7.97
2023-06-29T06:33:58.760Z,9.18
2023-06-29T06:39:00.646Z,22.77
2023-06-29T06:44:02.673Z,16.20
2023-06-29T06:49:04.782Z,16.58
2023-06-29T06:54:06.644Z,21.02
2023-06-29T06:59:09.247Z,12.73
2023-06-29T07:04:12.392Z,15.90
2023-06-29T07:09:14.662Z,9.88
2023-06-29T07:14:20.685Z,26.23
2023-06-29T07:24:28.038Z,15.13
2023-06-29T07:29:31.820Z,42.15
2023-06-29T07:34:34.080Z,19.15
2023-06-29T07:39:36.860Z,15.07
2023-06-29T07:44:38.876Z,12.35
2023-06-29T07:49:40.842Z,26.70
2023-06-29T07:54:43.402Z,12.02
2023-06-29T07:59:45.271Z,11.75
2023-06-29T08:09:52.114Z,11.63
2023-06-29T08:14:54.442Z,11.60
2023-06-29T08:19:56.430Z,26.70
2023-06-29T08:24:58.414Z,23.75
2023-06-29T08:30:00.300Z,12.63
2023-06-29T08:35:02.252Z,25.35
2023-06-29T08:40:06.342Z,11.43
2023-06-29T08:45:08.511Z,12.07
2023-06-29T08:50:11.906Z,10.90
2023-06-29T08:55:13.939Z,14.52
2023-06-29T09:00:16.992Z,11.48
2023-06-29T09:05:18.891Z,14.77
2023-06-29T09:10:20.992Z,12.30
2023-06-29T09:15:27.475Z,15.95
2023-06-29T09:20:35.515Z,16.15
2023-06-29T09:25:40.182Z,12.77
2023-06-29T09:30:43.345Z,18.17
2023-06-29T09:35:52.136Z,10.98
2023-06-29T09:40:55.607Z,12.20
2023-06-29T09:46:08.862Z,11.50
2023-06-29T09:51:11.171Z,10.35
2023-06-29T09:56:14.780Z,12.35
2023-06-29T10:01:19.565Z,11.43
2023-06-29T10:06:37.816Z,14.77
2023-06-29T10:11:43.267Z,11.52
2023-06-29T10:16:51.983Z,11.20
2023-06-29T10:22:00.693Z,11.43
2023-06-29T10:27:04.024Z,15.15
2023-06-29T10:32:06.497Z,13.43
2023-06-29T10:37:08.602Z,11.45
2023-06-29T10:42:39.506Z,10.52
2023-06-29T10:47:42.318Z,11.60
2023-06-29T10:52:45.062Z,9.77
2023-06-29T10:57:48.156Z,9.93
2023-06-29T11:02:50.757Z,11.75
2023-06-29T11:07:54.068Z,9.82
2023-06-29T11:12:56.766Z,12.10
2023-06-29T11:18:04.328Z,8.40
2023-06-29T11:23:08.645Z,9.88
2023-06-29T11:28:10.637Z,12.80
2023-06-29T11:33:28.600Z,10.07
2023-06-29T11:38:35.151Z,8.90
2023-06-29T11:43:37.628Z,8.63
2023-06-29T11:48:39.557Z,9.25
2023-06-29T11:53:41.486Z,10.20
2023-06-29T11:58:44.336Z,9.15
2023-06-29T12:03:48.523Z,13.23
2023-06-29T12:08:53.625Z,8.45
2023-06-29T12:13:56.799Z,10.10
2023-06-29T12:18:59.902Z,7.78
2023-06-29T12:24:04.645Z,9.15
2023-06-29T12:29:06.557Z,14.23
2023-06-29T12:34:08.927Z,13.40
2023-06-29T12:39:10.777Z,17.40
2023-06-29T12:44:12.798Z,10.70
2023-06-29T12:49:14.850Z,12.02
2023-06-29T12:54:16.956Z,11.48
2023-06-29T12:59:18.893Z,12.18
2023-06-29T13:04:21.217Z,12.02
2023-06-29T13:09:23.418Z,13.25
2023-06-29T13:14:25.297Z,16.70
2023-06-29T13:19:28.662Z,12.70
2023-06-29T13:24:30.676Z,13.50
2023-06-29T13:29:33.422Z,13.40
2023-06-29T13:34:35.612Z,13.25
2023-06-29T13:39:39.043Z,14.93
2023-06-29T13:44:41.152Z,15.73
2023-06-29T13:49:43.167Z,13.25
2023-06-29T13:54:45.248Z,16.08
2023-06-29T13:59:48.414Z,15.65
2023-06-29T14:04:50.244Z,14.10
2023-06-29T14:09:52.132Z,15.50
2023-06-29T14:14:54.055Z,13.93
2023-06-29T14:19:56.876Z,16.42
2023-06-29T14:24:58.668Z,19.73
2023-06-29T14:30:00.597Z,16.60
2023-06-29T14:35:02.752Z,15.15
2023-06-29T14:40:07.070Z,18.30
2023-06-29T14:45:09.490Z,16.73
2023-06-29T14:50:11.939Z,16.17
2023-06-29T14:55:13.928Z,17.38
2023-06-29T15:00:16.988Z,16.90
2023-06-29T15:05:19.098Z,19.65
2023-06-29T15:10:21.150Z,16.08
2023-06-29T15:15:23.720Z,22.48
2023-06-29T15:20:25.811Z,18.83
2023-06-29T15:25:27.961Z,17.33
2023-06-29T15:30:30.265Z,16.58
2023-06-29T15:35:32.845Z,17.98
2023-06-29T15:40:34.928Z,17.70
2023-06-29T15:45:38.445Z,22.08
2023-06-29T15:50:40.315Z,20.75
2023-06-29T15:55:42.272Z,16.70
2023-06-29T16:00:44.256Z,18.73
2023-06-29T16:05:46.552Z,18.02
2023-06-29T16:10:48.700Z,20.13
2023-06-29T16:15:50.561Z,19.67
2023-06-29T16:20:52.971Z,20.17
2023-06-29T16:25:54.966Z,21.67
2023-06-29T16:30:56.984Z,23.70
2023-06-29T16:35:59.154Z,24.80
2023-06-29T16:41:01.109Z,21.77
2023-06-29T16:46:03.786Z,28.05
2023-06-29T16:51:05.843Z,28.13
2023-06-29T16:56:07.775Z,18.90
2023-06-29T17:01:10.776Z,24.20
2023-06-29T17:06:12.931Z,19.45
2023-06-29T17:11:15.106Z,19.67
2023-06-29T17:16:17.255Z,19.95
2023-06-29T17:21:21.120Z,19.05
2023-06-29T17:26:24.357Z,19.65
2023-06-29T17:31:27.045Z,24.63
2023-06-29T17:36:28.915Z,18.45
2023-06-29T17:41:30.703Z,20.23
2023-06-29T17:46:34.299Z,18.77
2023-06-29T17:51:36.524Z,22.20
2023-06-29T17:56:38.373Z,21.50
2023-06-29T18:01:40.650Z,20.75
2023-06-29T18:06:42.705Z,20.27
2023-06-29T18:11:44.839Z,19.98
2023-06-29T18:16:46.999Z,19.75
2023-06-29T18:21:49.064Z,20.10
2023-06-29T18:26:51.018Z,22.73
2023-06-29T18:31:53.815Z,21.85
2023-06-29T18:36:56.588Z,19.95
2023-06-29T18:41:58.792Z,22.35
2023-06-29T18:47:15.077Z,18.65
2023-06-29T18:52:17.230Z,20.58
2023-06-29T18:57:19.315Z,23.67
2023-06-29T19:02:21.473Z,28.02
2023-06-29T19:07:23.529Z,21.20
2023-06-29T19:12:25.573Z,20.70
2023-06-29T19:17:29.481Z,19.02
2023-06-29T19:22:31.701Z,19.75
2023-06-29T19:27:34.169Z,20.08
2023-06-29T19:32:36.417Z,25.02
2023-06-29T19:37:38.335Z,19.42
2023-06-29T19:42:40.527Z,18.30
2023-06-29T19:47:44.270Z,15.90
2023-06-29T19:52:46.305Z,17.70
2023-06-29T19:57:48.130Z,17.05
2023-06-29T20:02:50.117Z,17.67
2023-06-29T20:07:52.117Z,13.77
2023-06-29T20:12:54.145Z,13.23
2023-06-29T20:17:56.061Z,13.38
2023-06-29T20:22:58.243Z,10.70
2023-06-29T20:28:00.274Z,9.35
2023-06-29T20:33:02.448Z,9.50
2023-06-29T20:38:04.450Z,7.18
2023-06-29T20:43:06.517Z,8.70
2023-06-29T20:48:08.593Z,7.40
2023-06-29T20:53:10.788Z,6.00
2023-06-29T20:58:12.723Z,8.48
2023-06-29T21:03:15.778Z,6.53
2023-06-29T21:08:17.782Z,5.38
2023-06-29T21:13:19.836Z,3.95
2023-06-29T21:18:21.968Z,3.97
2023-06-29T21:23:24.042Z,3.20
2023-06-29T21:28:26.480Z,2.90
2023-06-29T21:33:28.873Z,3.83
2023-06-29T21:38:32.181Z,3.95
2023-06-29T21:43:34.483Z,4.32
2023-06-29T21:48:37.271Z,2.70
2023-06-29T21:53:39.261Z,3.50
2023-06-29T21:58:41.108Z,4.28
2023-06-29T22:03:43.170Z,4.88
2023-06-29T22:08:45.020Z,3.85
2023-06-29T22:13:47.479Z,2.97
2023-06-29T22:18:52.926Z,3.05
2023-06-29T22:23:56.292Z,2.13
2023-06-29T22:28:58.103Z,2.15
2023-06-29T22:34:00.080Z,2.45
2023-06-29T22:39:02.762Z,1.75
2023-06-29T22:44:05.108Z,2.13
2023-06-29T22:49:07.324Z,3.03
2023-06-29T22:54:10.288Z,1.20
2023-06-29T22:59:13.135Z,1.35
2023-06-29T23:04:15.392Z,1.33
2023-06-29T23:09:17.555Z,0.93
2023-06-29T23:14:19.867Z,1.83
2023-06-29T23:19:22.245Z,1.80
2023-06-29T23:24:24.334Z,0.93
2023-06-29T23:29:26.307Z,0.70
2023-06-29T23:34:28.328Z,1.70
2023-06-29T23:39:36.006Z,3.90
2023-06-29T23:44:42.002Z,2.13
2023-06-29T23:49:44.635Z,3.72
2023-06-29T23:54:46.559Z,1.42
2023-06-29T23:59:48.594Z,2.50
